Back to Top

Language: 

My Weather Underground Personal Weather Station Historical Data with Graphs...

Delerius Weather Station Historical Data
Daily Summary for August 25, 2017 Units:  Metric    English   Both
« Previous Day
Next Day »
Daily Weekly Monthly Yearly Custom
  High: Low: Average:
Temperature: 21.8 °C 10.8 °C 16.6 °C
Dew Point: 14.3 °C 9.4 °C 12.4 °C
Humidity: 94 % 58 % 77 %
Wind Speed: 14.5 km/h 0 km/h 3.5 km/h
Wind Gust: 24.1 km/h - -
Wind:- - SW
Pressure: 1016.5 hPa 1015.1 hPa -
Precipitation: 0 mm    
Historical Graphs
 
 
Tabular Data for August 25, 2017
Time Temperature Dew Point Pressure Wind Wind Speed Wind Gust Humidity Rainfall Rate (Hourly) solar Conditions
00:02 13.3 °C 10.8 °C 1015.8 hPa WNW 4.8 km/h 11.3 km/h 85 % 0 mm 0 W/m2
00:07 13.2 °C 10.7 °C 1015.8 hPa WNW 1.6 km/h 9.7 km/h 85 % 0 mm 0 W/m2
00:12 13.2 °C 10.7 °C 1015.8 hPa Calm   3.2 km/h 85 % 0 mm 0 W/m2
00:17 13.1 °C 10.6 °C 1015.8 hPa Calm   4.8 km/h 85 % 0 mm 0 W/m2
00:22 13 °C 10.6 °C 1015.8 hPa WNW 1.6 km/h 6.4 km/h 85 % 0 mm 0 W/m2
00:27 12.9 °C 10.6 °C 1015.8 hPa WNW 1.6 km/h 8 km/h 86 % 0 mm 0 W/m2
00:32 12.9 °C 10.6 °C 1015.8 hPa Calm   8 km/h 86 % 0 mm 0 W/m2
00:37 12.8 °C 10.5 °C 1015.8 hPa Calm   3.2 km/h 86 % 0 mm 0 W/m2
00:42 12.8 °C 10.5 °C 1015.8 hPa North 3.2 km/h 8 km/h 86 % 0 mm 0 W/m2
00:47 12.8 °C 10.5 °C 1015.8 hPa North 1.6 km/h 8 km/h 86 % 0 mm 0 W/m2
00:52 12.7 °C 10.6 °C 1015.8 hPa Calm   8 km/h 87 % 0 mm 0 W/m2
00:58 12.7 °C 10.6 °C 1015.8 hPa North 3.2 km/h 12.9 km/h 87 % 0 mm 0 W/m2
01:03 12.7 °C 10.6 °C 1015.8 hPa NNW 3.2 km/h 12.9 km/h 87 % 0 mm 0 W/m2
01:08 12.6 °C 10.3 °C 1015.8 hPa NW 1.6 km/h 8 km/h 86 % 0 mm 0 W/m2
01:13 12.4 °C 10.3 °C 1015.8 hPa Calm   1.6 km/h 87 % 0 mm 0 W/m2
01:18 12.3 °C 10.4 °C 1015.8 hPa Calm   4.8 km/h 88 % 0 mm 0 W/m2
01:23 12.2 °C 10.3 °C 1015.8 hPa Calm   4.8 km/h 88 % 0 mm 0 W/m2
01:28 12.2 °C 10.3 °C 1015.5 hPa Calm   3.2 km/h 88 % 0 mm 0 W/m2
01:33 12.2 °C 10.4 °C 1015.5 hPa Calm   3.2 km/h 89 % 0 mm 0 W/m2
01:38 12.1 °C 10.3 °C 1015.5 hPa Calm   4.8 km/h 89 % 0 mm 0 W/m2
01:43 12.1 °C 10.3 °C 1015.5 hPa SSE 1.6 km/h 6.4 km/h 89 % 0 mm 0 W/m2
01:48 12.1 °C 10.3 °C 1015.5 hPa SSE 1.6 km/h 6.4 km/h 89 % 0 mm 0 W/m2
01:53 12.2 °C 10.4 °C 1015.5 hPa SE 1.6 km/h 6.4 km/h 89 % 0 mm 0 W/m2
01:58 12.3 °C 10.6 °C 1015.5 hPa Calm   6.4 km/h 89 % 0 mm 0 W/m2
02:03 12.4 °C 10.6 °C 1015.8 hPa ESE 1.6 km/h 6.4 km/h 89 % 0 mm 0 W/m2
02:08 12.6 °C 10.7 °C 1015.8 hPa ESE 1.6 km/h 8 km/h 88 % 0 mm 0 W/m2
02:13 12.6 °C 10.5 °C 1015.8 hPa ESE 1.6 km/h 8 km/h 87 % 0 mm 0 W/m2
02:18 12.6 °C 10.5 °C 1015.5 hPa Calm   6.4 km/h 87 % 0 mm 0 W/m2
02:23 12.6 °C 10.5 °C 1015.5 hPa Calm   1.6 km/h 87 % 0 mm 0 W/m2
02:28 12.6 °C 10.5 °C 1015.5 hPa Calm   1.6 km/h 87 % 0 mm 0 W/m2
02:33 12.5 °C 10.4 °C 1015.5 hPa Calm   1.6 km/h 87 % 0 mm 0 W/m2
02:38 12.4 °C 10.3 °C 1015.5 hPa Calm     87 % 0 mm 0 W/m2
02:43 12.3 °C 10.2 °C 1015.5 hPa SSW 1.6 km/h 6.4 km/h 87 % 0 mm 0 W/m2
02:44 12.3 °C 10.4 °C 1015.5 hPa SSW 1.6 km/h 8 km/h 88 % 0 mm 0 W/m2
02:49 12.4 °C 10.4 °C 1015.5 hPa SSW 1.6 km/h 8 km/h 88 % 0 mm 0 W/m2
02:54 12.3 °C 10.4 °C 1015.5 hPa Calm   3.2 km/h 88 % 0 mm 0 W/m2
02:59 12.3 °C 10.4 °C 1015.5 hPa Calm   6.4 km/h 88 % 0 mm 0 W/m2
03:04 12.2 °C 10.3 °C 1015.5 hPa Calm   6.4 km/h 88 % 0 mm 0 W/m2
03:09 12.2 °C 10.3 °C 1015.5 hPa Calm   3.2 km/h 88 % 0 mm 0 W/m2
03:14 12.2 °C 10.3 °C 1015.1 hPa Calm   3.2 km/h 88 % 0 mm 0 W/m2
03:19 12.1 °C 10.2 °C 1015.5 hPa Calm     88 % 0 mm 0 W/m2
03:24 12.1 °C 10.2 °C 1015.5 hPa Calm   1.6 km/h 88 % 0 mm 0 W/m2
03:29 11.9 °C 10.2 °C 1015.5 hPa Calm   1.6 km/h 89 % 0 mm 0 W/m2
03:34 11.8 °C 10.1 °C 1015.5 hPa Calm   1.6 km/h 89 % 0 mm 0 W/m2
03:39 11.8 °C 10.1 °C 1015.5 hPa Calm   3.2 km/h 89 % 0 mm 0 W/m2
03:44 11.7 °C 10.1 °C 1015.5 hPa SSE 1.6 km/h 9.7 km/h 90 % 0 mm 0 W/m2
03:49 11.7 °C 10.1 °C 1015.5 hPa East 1.6 km/h 9.7 km/h 90 % 0 mm 0 W/m2
03:54 11.7 °C 10.1 °C 1015.5 hPa East 3.2 km/h 9.7 km/h 90 % 0 mm 0 W/m2
03:59 11.7 °C 10.1 °C 1015.5 hPa East 1.6 km/h 6.4 km/h 90 % 0 mm 0 W/m2
04:04 11.7 °C 10.1 °C 1015.5 hPa East 1.6 km/h 6.4 km/h 90 % 0 mm 0 W/m2
04:09 11.8 °C 10.2 °C 1015.5 hPa Calm   4.8 km/h 90 % 0 mm 0 W/m2
04:14 11.8 °C 10.2 °C 1015.5 hPa ENE 1.6 km/h 8 km/h 90 % 0 mm 0 W/m2
04:19 11.8 °C 10.2 °C 1015.5 hPa ENE 1.6 km/h 8 km/h 90 % 0 mm 0 W/m2
04:25 11.7 °C 10.1 °C 1015.5 hPa ENE 1.6 km/h 4.8 km/h 90 % 0 mm 0 W/m2
04:30 11.7 °C 10.1 °C 1015.5 hPa ENE 1.6 km/h 6.4 km/h 90 % 0 mm 0 W/m2
04:35 11.6 °C 10 °C 1015.5 hPa ENE 1.6 km/h 6.4 km/h 90 % 0 mm 0 W/m2
04:40 11.6 °C 10 °C 1015.5 hPa ENE 1.6 km/h 4.8 km/h 90 % 0 mm 0 W/m2
04:45 11.7 °C 10.1 °C 1015.5 hPa ENE 1.6 km/h 4.8 km/h 90 % 0 mm 0 W/m2
04:50 11.7 °C 10.1 °C 1015.5 hPa Calm   4.8 km/h 90 % 0 mm 0 W/m2
04:55 11.7 °C 10.3 °C 1015.5 hPa ENE 3.2 km/h 9.7 km/h 91 % 0 mm 0 W/m2
05:00 11.8 °C 10.2 °C 1015.5 hPa ENE 3.2 km/h 9.7 km/h 90 % 0 mm 0 W/m2
05:05 11.7 °C 10.1 °C 1015.5 hPa Calm   6.4 km/h 90 % 0 mm 0 W/m2
05:10 11.7 °C 10.1 °C 1015.5 hPa Calm   3.2 km/h 90 % 0 mm 0 W/m2
05:15 11.6 °C 10 °C 1015.5 hPa Calm   3.2 km/h 90 % 0 mm 0 W/m2
05:20 11.6 °C 10 °C 1015.5 hPa Calm   3.2 km/h 90 % 0 mm 0 W/m2
05:25 11.5 °C 9.9 °C 1015.5 hPa Calm     90 % 0 mm 0 W/m2
05:30 11.4 °C 9.8 °C 1015.8 hPa Calm     90 % 0 mm 0 W/m2
05:35 11.3 °C 9.9 °C 1015.8 hPa Calm   3.2 km/h 91 % 0 mm 0 W/m2
05:40 11.3 °C 9.9 °C 1015.5 hPa Calm   3.2 km/h 91 % 0 mm 0 W/m2
05:45 11.2 °C 9.8 °C 1015.5 hPa Calm   1.6 km/h 91 % 0 mm 0 W/m2
05:50 11.2 °C 9.8 °C 1015.5 hPa Calm   1.6 km/h 91 % 0 mm 0 W/m2
05:55 11.2 °C 9.8 °C 1015.5 hPa North 1.6 km/h 6.4 km/h 91 % 0 mm 0 W/m2
05:56 11.2 °C 9.9 °C 1015.5 hPa North 1.6 km/h 6.4 km/h 92 % 0 mm 0 W/m2
06:01 11.2 °C 9.9 °C 1015.5 hPa NW 3.2 km/h 8 km/h 92 % 0 mm 0 W/m2
06:06 11.3 °C 10.1 °C 1015.5 hPa WNW 3.2 km/h 8 km/h 92 % 0 mm 0 W/m2
06:11 11.1 °C 9.7 °C 1015.8 hPa WNW 1.6 km/h 8 km/h 91 % 0 mm 0 W/m2
06:16 10.9 °C 9.5 °C 1015.8 hPa Calm   6.4 km/h 91 % 0 mm 5 W/m2
06:21 10.8 °C 9.4 °C 1015.8 hPa Calm     91 % 0 mm 5 W/m2
06:26 10.8 °C 9.6 °C 1015.8 hPa Calm     92 % 0 mm 7 W/m2
06:31 10.8 °C 9.6 °C 1015.8 hPa Calm     92 % 0 mm 9 W/m2
06:36 10.8 °C 9.6 °C 1015.8 hPa Calm     92 % 0 mm 11 W/m2
06:41 10.8 °C 9.7 °C 1015.8 hPa Calm     93 % 0 mm 14 W/m2
06:46 10.8 °C 9.7 °C 1015.8 hPa Calm   1.6 km/h 93 % 0 mm 19 W/m2
06:51 10.8 °C 9.7 °C 1015.8 hPa Calm   1.6 km/h 93 % 0 mm 25 W/m2
06:56 10.8 °C 9.7 °C 1015.8 hPa Calm   1.6 km/h 93 % 0 mm 35 W/m2
07:01 11 °C 10.1 °C 1015.8 hPa Calm     94 % 0 mm 42 W/m2
07:06 11.1 °C 10.2 °C 1015.8 hPa Calm     94 % 0 mm 62 W/m2
07:11 11.3 °C 10.4 °C 1015.8 hPa Calm     94 % 0 mm 56 W/m2
07:16 11.5 °C 10.6 °C 1016.1 hPa Calm     94 % 0 mm 63 W/m2
07:21 11.7 °C 10.8 °C 1016.1 hPa Calm     94 % 0 mm 60 W/m2
07:26 11.9 °C 10.8 °C 1016.1 hPa NNW 1.6 km/h 6.4 km/h 93 % 0 mm 135 W/m2
07:31 12.1 °C 11 °C 1015.8 hPa NE 1.6 km/h 6.4 km/h 93 % 0 mm 109 W/m2
07:36 12.4 °C 11.3 °C 1016.1 hPa East 1.6 km/h 6.4 km/h 93 % 0 mm 118 W/m2
07:41 12.8 °C 11.6 °C 1016.1 hPa East 1.6 km/h 6.4 km/h 92 % 0 mm 158 W/m2
07:46 13.1 °C 11.7 °C 1016.1 hPa Calm   4.8 km/h 91 % 0 mm 163 W/m2
07:51 13.4 °C 11.8 °C 1016.1 hPa Calm   3.2 km/h 90 % 0 mm 188 W/m2
07:53 13.6 °C 12 °C 1016.1 hPa Calm   3.2 km/h 90 % 0 mm 188 W/m2
07:58 14 °C 12.2 °C 1016.1 hPa Calm   3.2 km/h 89 % 0 mm 229 W/m2
07:59 14.1 °C 12.2 °C 1016.1 hPa Calm   3.2 km/h 88 % 0 mm 227 W/m2
08:04 14.5 °C 12.2 °C 1016.1 hPa Calm   3.2 km/h 86 % 0 mm 262 W/m2
08:09 14.9 °C 12.4 °C 1016.1 hPa Calm   3.2 km/h 85 % 0 mm 269 W/m2
08:14 15.3 °C 12.6 °C 1016.1 hPa Calm   1.6 km/h 84 % 0 mm 250 W/m2
08:20 15.7 °C 12.6 °C 1016.1 hPa Calm   1.6 km/h 82 % 0 mm 292 W/m2
08:25 16.1 °C 12.8 °C 1016.1 hPa Calm   1.6 km/h 81 % 0 mm 316 W/m2
08:30 16.2 °C 12.7 °C 1016.1 hPa Calm   1.6 km/h 80 % 0 mm 287 W/m2
08:35 16.6 °C 12.9 °C 1016.1 hPa Calm     79 % 0 mm 346 W/m2
08:40 17.1 °C 13.2 °C 1016.1 hPa Calm     78 % 0 mm 329 W/m2
08:45 17.5 °C 13.4 °C 1016.1 hPa Calm   4.8 km/h 77 % 0 mm 390 W/m2
08:50 17.7 °C 13.2 °C 1016.1 hPa Calm   4.8 km/h 75 % 0 mm 439 W/m2
08:55 17.6 °C 13.1 °C 1016.1 hPa Calm   3.2 km/h 75 % 0 mm 490 W/m2
09:00 17.8 °C 13.3 °C 1016.1 hPa Calm   1.6 km/h 75 % 0 mm 192 W/m2
09:05 17.9 °C 13.4 °C 1016.1 hPa Calm   1.6 km/h 75 % 0 mm 214 W/m2
09:10 17.9 °C 13.2 °C 1016.1 hPa Calm   1.6 km/h 74 % 0 mm 207 W/m2
09:15 17.9 °C 13.2 °C 1016.1 hPa Calm   3.2 km/h 74 % 0 mm 190 W/m2
09:20 17.8 °C 13.5 °C 1016.1 hPa Calm   3.2 km/h 76 % 0 mm 211 W/m2
09:25 17.8 °C 13.5 °C 1016.1 hPa Calm     76 % 0 mm 204 W/m2
09:30 17.8 °C 13.5 °C 1016.1 hPa WNW 1.6 km/h 14.5 km/h 76 % 0 mm 239 W/m2
09:35 17.9 °C 13.2 °C 1016.1 hPa WNW 4.8 km/h 14.5 km/h 74 % 0 mm 617 W/m2
09:40 18.2 °C 13.1 °C 1016.1 hPa NW 8 km/h 16.1 km/h 72 % 0 mm 366 W/m2
09:45 18.4 °C 13.4 °C 1016.1 hPa NW 8 km/h 16.1 km/h 73 % 0 mm 285 W/m2
09:50 18.6 °C 13.4 °C 1016.1 hPa WNW 6.4 km/h 12.9 km/h 72 % 0 mm 311 W/m2
09:55 18.8 °C 13.4 °C 1016.5 hPa WNW 4.8 km/h 12.9 km/h 71 % 0 mm 274 W/m2
10:00 18.9 °C 13.3 °C 1016.1 hPa NW 3.2 km/h 9.7 km/h 70 % 0 mm 278 W/m2
10:05 19 °C 13.2 °C 1016.1 hPa NW 1.6 km/h 8 km/h 69 % 0 mm 338 W/m2
10:10 19.1 °C 13.3 °C 1016.1 hPa NNW 1.6 km/h 6.4 km/h 69 % 0 mm 281 W/m2
10:15 18.9 °C 13.3 °C 1016.1 hPa ENE 1.6 km/h 8 km/h 70 % 0 mm 311 W/m2
10:20 18.9 °C 13.7 °C 1016.1 hPa East 3.2 km/h 9.7 km/h 72 % 0 mm 272 W/m2
10:25 18.8 °C 13.7 °C 1016.1 hPa ESE 4.8 km/h 9.7 km/h 72 % 0 mm 248 W/m2
10:30 18.8 °C 13.7 °C 1016.1 hPa ESE 3.2 km/h 9.7 km/h 72 % 0 mm 183 W/m2
10:35 18.7 °C 13.3 °C 1016.1 hPa ESE 3.2 km/h 8 km/h 71 % 0 mm 195 W/m2
10:40 18.5 °C 13.3 °C 1016.1 hPa SE 4.8 km/h 9.7 km/h 72 % 0 mm 190 W/m2
10:45 18.3 °C 13.4 °C 1016.1 hPa SE 4.8 km/h 9.7 km/h 73 % 0 mm 218 W/m2
10:50 18.3 °C 13.6 °C 1016.1 hPa SSE 3.2 km/h 8 km/h 74 % 0 mm 258 W/m2
10:55 18.4 °C 13.7 °C 1016.1 hPa SSE 3.2 km/h 8 km/h 74 % 0 mm 503 W/m2
11:00 18.7 °C 13.9 °C 1016.1 hPa SSE 3.2 km/h 9.7 km/h 74 % 0 mm 357 W/m2
11:06 18.8 °C 13.8 °C 1016.1 hPa SSE 3.2 km/h 9.7 km/h 73 % 0 mm 304 W/m2
11:10 18.8 °C 13.8 °C 1016.1 hPa SSE 4.8 km/h 9.7 km/h 73 % 0 mm 387 W/m2
11:15 18.8 °C 13.8 °C 1015.8 hPa SE 4.8 km/h 12.9 km/h 73 % 0 mm 575 W/m2
11:20 18.9 °C 13.9 °C 1015.8 hPa SE 4.8 km/h 12.9 km/h 73 % 0 mm 541 W/m2
11:26 19.3 °C 14.3 °C 1015.8 hPa ESE 3.2 km/h 9.7 km/h 73 % 0 mm 550 W/m2
11:31 19.6 °C 14 °C 1015.8 hPa ESE 4.8 km/h 12.9 km/h 70 % 0 mm 939 W/m2
11:36 19.8 °C 14.2 °C 1015.8 hPa SE 6.4 km/h 12.9 km/h 70 % 0 mm 768 W/m2
11:41 19.9 °C 14.1 °C 1015.8 hPa SE 6.4 km/h 14.5 km/h 69 % 0 mm 733 W/m2
11:46 20 °C 13.7 °C 1015.5 hPa SSE 6.4 km/h 16.1 km/h 67 % 0 mm 580 W/m2
11:51 20.1 °C 13.8 °C 1015.5 hPa South 8 km/h 16.1 km/h 67 % 0 mm 531 W/m2
11:56 20.1 °C 13.6 °C 1015.8 hPa SSW 9.7 km/h 17.7 km/h 66 % 0 mm 733 W/m2
12:01 20.1 °C 13.6 °C 1015.8 hPa SSW 9.7 km/h 17.7 km/h 66 % 0 mm 726 W/m2
12:06 20.1 °C 13.6 °C 1015.8 hPa SSW 11.3 km/h 19.3 km/h 66 % 0 mm 766 W/m2
12:11 20.2 °C 13.7 °C 1015.8 hPa SSW 12.9 km/h 19.3 km/h 66 % 0 mm 830 W/m2
12:16 20.4 °C 13.8 °C 1015.8 hPa SW 9.7 km/h 17.7 km/h 66 % 0 mm 673 W/m2
12:21 20.4 °C 13.1 °C 1015.8 hPa SSW 11.3 km/h 17.7 km/h 63 % 0 mm 480 W/m2
12:26 20.2 °C 13.4 °C 1015.8 hPa South 9.7 km/h 17.7 km/h 65 % 0 mm 364 W/m2
12:31 20 °C 13.4 °C 1015.5 hPa SSW 9.7 km/h 19.3 km/h 66 % 0 mm 346 W/m2
12:36 19.9 °C 13.3 °C 1015.8 hPa SSW 11.3 km/h 19.3 km/h 66 % 0 mm 418 W/m2
12:41 19.8 °C 13.5 °C 1015.8 hPa SW 11.3 km/h 16.1 km/h 67 % 0 mm 564 W/m2
12:46 19.9 °C 13.8 °C 1015.5 hPa SSW 11.3 km/h 17.7 km/h 68 % 0 mm 468 W/m2
12:51 20 °C 13.9 °C 1015.5 hPa SSW 8 km/h 17.7 km/h 68 % 0 mm 446 W/m2
12:56 20 °C 13.4 °C 1015.5 hPa SSW 9.7 km/h 17.7 km/h 66 % 0 mm 371 W/m2
13:01 19.9 °C 13.6 °C 1015.5 hPa SSW 9.7 km/h 17.7 km/h 67 % 0 mm 373 W/m2
13:06 19.9 °C 13.6 °C 1015.5 hPa SSW 8 km/h 17.7 km/h 67 % 0 mm 367 W/m2
13:11 20 °C 13.7 °C 1015.5 hPa SSW 9.7 km/h 17.7 km/h 67 % 0 mm 339 W/m2
13:16 19.9 °C 13.6 °C 1015.5 hPa SW 11.3 km/h 16.1 km/h 67 % 0 mm 309 W/m2
13:21 19.8 °C 13.5 °C 1015.5 hPa SW 12.9 km/h 19.3 km/h 67 % 0 mm 255 W/m2
13:26 19.9 °C 13.6 °C 1015.5 hPa SW 11.3 km/h 19.3 km/h 67 % 0 mm 264 W/m2
13:31 20 °C 13.4 °C 1015.5 hPa WSW 9.7 km/h 17.7 km/h 66 % 0 mm 255 W/m2
13:36 20.1 °C 13.6 °C 1015.5 hPa West 11.3 km/h 17.7 km/h 66 % 0 mm 346 W/m2
13:41 20.2 °C 13.4 °C 1015.5 hPa West 11.3 km/h 22.5 km/h 65 % 0 mm 387 W/m2
13:46 20.3 °C 13.3 °C 1015.8 hPa West 12.9 km/h 22.5 km/h 64 % 0 mm 387 W/m2
13:51 20.3 °C 13 °C 1015.8 hPa West 12.9 km/h 22.5 km/h 63 % 0 mm 399 W/m2
13:56 20.2 °C 13.2 °C 1015.8 hPa West 12.9 km/h 20.9 km/h 64 % 0 mm 478 W/m2
14:01 20.4 °C 13.1 °C 1015.8 hPa West 12.9 km/h 22.5 km/h 63 % 0 mm 501 W/m2
14:06 20.4 °C 12.9 °C 1015.8 hPa West 14.5 km/h 24.1 km/h 62 % 0 mm 476 W/m2
14:11 20.4 °C 13.1 °C 1015.8 hPa West 14.5 km/h 24.1 km/h 63 % 0 mm 373 W/m2
14:16 20.3 °C 13 °C 1015.8 hPa West 11.3 km/h 19.3 km/h 63 % 0 mm 552 W/m2
14:21 20.4 °C 12.6 °C 1015.8 hPa West 11.3 km/h 19.3 km/h 61 % 0 mm 403 W/m2
14:26 20.5 °C 12.7 °C 1015.8 hPa West 11.3 km/h 19.3 km/h 61 % 0 mm 550 W/m2
14:31 20.7 °C 13.2 °C 1015.8 hPa WSW 9.7 km/h 16.1 km/h 62 % 0 mm 482 W/m2
14:36 20.8 °C 13 °C 1015.8 hPa WSW 9.7 km/h 16.1 km/h 61 % 0 mm 568 W/m2
14:41 21.1 °C 13.1 °C 1015.5 hPa West 9.7 km/h 19.3 km/h 60 % 0 mm 388 W/m2
14:46 21 °C 12.9 °C 1015.5 hPa West 12.9 km/h 19.3 km/h 60 % 0 mm 538 W/m2
14:51 21.1 °C 13.1 °C 1015.5 hPa WSW 11.3 km/h 19.3 km/h 60 % 0 mm 580 W/m2
14:56 21.1 °C 12.8 °C 1015.5 hPa West 9.7 km/h 16.1 km/h 59 % 0 mm 577 W/m2
15:01 21.2 °C 13.1 °C 1015.5 hPa WSW 9.7 km/h 16.1 km/h 60 % 0 mm 684 W/m2
15:06 21.2 °C 13.1 °C 1015.5 hPa WSW 9.7 km/h 17.7 km/h 60 % 0 mm 524 W/m2
15:11 21.1 °C 13.6 °C 1015.5 hPa WSW 9.7 km/h 17.7 km/h 62 % 0 mm 357 W/m2
15:16 21.2 °C 13.4 °C 1015.5 hPa West 9.7 km/h 16.1 km/h 61 % 0 mm 432 W/m2
15:21 21.5 °C 13.4 °C 1015.5 hPa West 11.3 km/h 19.3 km/h 60 % 0 mm 631 W/m2
15:26 21.5 °C 13.2 °C 1015.5 hPa WSW 12.9 km/h 20.9 km/h 59 % 0 mm 633 W/m2
15:31 21.3 °C 13.2 °C 1015.5 hPa WSW 11.3 km/h 20.9 km/h 60 % 0 mm 629 W/m2
15:36 21.3 °C 12.9 °C 1015.5 hPa WSW 8 km/h 19.3 km/h 59 % 0 mm 506 W/m2
15:38 21.3 °C 13.2 °C 1015.5 hPa SW 8 km/h 16.1 km/h 60 % 0 mm 520 W/m2
15:41 21.3 °C 13.4 °C 1015.5 hPa SW 8 km/h 16.1 km/h 61 % 0 mm 489 W/m2
15:46 21.2 °C 12.9 °C 1015.5 hPa SW 9.7 km/h 19.3 km/h 59 % 0 mm 531 W/m2
15:51 20.9 °C 12.6 °C 1015.1 hPa SW 11.3 km/h 19.3 km/h 59 % 0 mm 489 W/m2
15:56 20.9 °C 12.8 °C 1015.1 hPa SW 11.3 km/h 19.3 km/h 60 % 0 mm 524 W/m2
16:01 21.2 °C 13.6 °C 1015.1 hPa WSW 8 km/h 17.7 km/h 62 % 0 mm 594 W/m2
16:10 21.5 °C 13.2 °C 1015.1 hPa WNW 9.7 km/h 12.9 km/h 59 % 0 mm 575 W/m2
16:15 21.8 °C 13.4 °C 1015.5 hPa West 9.7 km/h 14.5 km/h 59 % 0 mm 248 W/m2
16:19 21.7 °C 13.1 °C 1015.5 hPa WSW 9.7 km/h 17.7 km/h 58 % 0 mm 260 W/m2
16:24 21.4 °C 13.1 °C 1015.5 hPa SW 9.7 km/h 17.7 km/h 59 % 0 mm 364 W/m2
16:29 21.3 °C 13.2 °C 1015.5 hPa SW 8 km/h 14.5 km/h 60 % 0 mm 229 W/m2
16:35 21.3 °C 13.2 °C 1015.1 hPa WSW 6.4 km/h 14.5 km/h 60 % 0 mm 200 W/m2
16:40 21.1 °C 13.3 °C 1015.1 hPa WSW 8 km/h 12.9 km/h 61 % 0 mm 172 W/m2
16:45 20.9 °C 13.1 °C 1015.1 hPa SW 6.4 km/h 12.9 km/h 61 % 0 mm 190 W/m2
16:50 20.9 °C 13.1 °C 1015.5 hPa WSW 6.4 km/h 11.3 km/h 61 % 0 mm 130 W/m2
16:55 20.8 °C 13.3 °C 1015.5 hPa WSW 6.4 km/h 11.3 km/h 62 % 0 mm 178 W/m2
17:00 20.8 °C 13.5 °C 1015.5 hPa WSW 6.4 km/h 11.3 km/h 63 % 0 mm 204 W/m2
17:05 20.7 °C 13.2 °C 1015.1 hPa SW 6.4 km/h 11.3 km/h 62 % 0 mm 174 W/m2
17:10 20.7 °C 13.4 °C 1015.1 hPa SW 3.2 km/h 9.7 km/h 63 % 0 mm 176 W/m2
17:15 20.7 °C 13.4 °C 1015.1 hPa West 4.8 km/h 11.3 km/h 63 % 0 mm 163 W/m2
17:20 20.7 °C 13.4 °C 1015.1 hPa West 6.4 km/h 11.3 km/h 63 % 0 mm 148 W/m2
17:25 20.7 °C 13.4 °C 1015.1 hPa West 6.4 km/h 14.5 km/h 63 % 0 mm 134 W/m2
17:30 20.6 °C 13.1 °C 1015.1 hPa West 9.7 km/h 14.5 km/h 62 % 0 mm 114 W/m2
17:35 20.5 °C 13.2 °C 1015.1 hPa West 9.7 km/h 14.5 km/h 63 % 0 mm 113 W/m2
17:40 20.4 °C 13.3 °C 1015.5 hPa West 9.7 km/h 14.5 km/h 64 % 0 mm 113 W/m2
17:45 20.3 °C 13.3 °C 1015.5 hPa West 8 km/h 14.5 km/h 64 % 0 mm 111 W/m2
17:50 20.3 °C 13.3 °C 1015.5 hPa West 9.7 km/h 14.5 km/h 64 % 0 mm 118 W/m2
17:55 20.2 °C 13.4 °C 1015.5 hPa West 9.7 km/h 14.5 km/h 65 % 0 mm 121 W/m2
18:00 20.2 °C 13.7 °C 1015.5 hPa WNW 8 km/h 12.9 km/h 66 % 0 mm 111 W/m2
18:05 20.2 °C 13.7 °C 1015.5 hPa West 6.4 km/h 12.9 km/h 66 % 0 mm 114 W/m2
18:10 20.1 °C 13.3 °C 1015.5 hPa West 8 km/h 16.1 km/h 65 % 0 mm 90 W/m2
18:15 20.1 °C 13.6 °C 1015.5 hPa WNW 9.7 km/h 16.1 km/h 66 % 0 mm 81 W/m2
18:20 20 °C 13.4 °C 1015.1 hPa West 8 km/h 14.5 km/h 66 % 0 mm 67 W/m2
18:25 19.9 °C 13.6 °C 1015.1 hPa West 4.8 km/h 12.9 km/h 67 % 0 mm 56 W/m2
18:30 19.9 °C 13.6 °C 1015.1 hPa WNW 4.8 km/h 9.7 km/h 67 % 0 mm 63 W/m2
18:35 19.8 °C 13.5 °C 1015.1 hPa NW 4.8 km/h 9.7 km/h 67 % 0 mm 72 W/m2
18:40 19.8 °C 13.7 °C 1015.1 hPa NW 4.8 km/h 9.7 km/h 68 % 0 mm 69 W/m2
18:45 19.8 °C 13.7 °C 1015.1 hPa NW 3.2 km/h 8 km/h 68 % 0 mm 49 W/m2
18:50 19.7 °C 13.8 °C 1015.1 hPa NW 1.6 km/h 6.4 km/h 69 % 0 mm 40 W/m2
18:55 19.6 °C 14 °C 1015.1 hPa Calm   3.2 km/h 70 % 0 mm 42 W/m2
19:00 19.5 °C 13.9 °C 1015.5 hPa NW 1.6 km/h 6.4 km/h 70 % 0 mm 40 W/m2
19:05 19.4 °C 13.6 °C 1015.5 hPa NW 1.6 km/h 6.4 km/h 69 % 0 mm 46 W/m2
19:10 19.4 °C 13.8 °C 1015.5 hPa NW 1.6 km/h 4.8 km/h 70 % 0 mm 51 W/m2
19:15 19.4 °C 13.8 °C 1015.5 hPa NW 1.6 km/h 4.8 km/h 70 % 0 mm 51 W/m2
19:20 19.3 °C 13.7 °C 1015.5 hPa NW 1.6 km/h 4.8 km/h 70 % 0 mm 37 W/m2
19:25 19.3 °C 13.7 °C 1015.5 hPa NW 1.6 km/h 4.8 km/h 70 % 0 mm 28 W/m2
19:30 19.2 °C 13.6 °C 1015.5 hPa NW 3.2 km/h 8 km/h 70 % 0 mm 21 W/m2
19:35 19.2 °C 13.8 °C 1015.5 hPa NW 1.6 km/h 8 km/h 71 % 0 mm 18 W/m2
19:40 19.2 °C 13.8 °C 1015.5 hPa Calm   3.2 km/h 71 % 0 mm 16 W/m2
19:45 19.1 °C 13.9 °C 1015.5 hPa Calm   1.6 km/h 72 % 0 mm 12 W/m2
19:50 19.1 °C 13.9 °C 1015.5 hPa Calm   1.6 km/h 72 % 0 mm 11 W/m2
19:55 18.9 °C 13.9 °C 1015.5 hPa Calm   1.6 km/h 73 % 0 mm 12 W/m2
20:00 18.8 °C 14.1 °C 1015.5 hPa Calm     74 % 0 mm 9 W/m2
20:05 18.7 °C 14.2 °C 1015.5 hPa Calm     75 % 0 mm 7 W/m2
20:10 18.6 °C 14.3 °C 1015.8 hPa Calm     76 % 0 mm 5 W/m2
20:15 18.5 °C 14.2 °C 1015.8 hPa Calm     76 % 0 mm 0 W/m2
20:20 18.3 °C 14 °C 1015.5 hPa Calm     76 % 0 mm 0 W/m2
20:25 18.2 °C 13.9 °C 1015.5 hPa Calm     76 % 0 mm 0 W/m2
20:30 18.1 °C 14.2 °C 1015.8 hPa Calm     78 % 0 mm 0 W/m2
20:35 17.9 °C 14.2 °C 1015.8 hPa Calm     79 % 0 mm 0 W/m2
20:40 17.7 °C 14.2 °C 1015.8 hPa Calm     80 % 0 mm 0 W/m2
20:45 17.6 °C 14.1 °C 1015.5 hPa Calm     80 % 0 mm 0 W/m2
20:50 17.4 °C 14.1 °C 1015.5 hPa Calm     81 % 0 mm 0 W/m2
20:55 17.2 °C 13.9 °C 1015.5 hPa Calm     81 % 0 mm 0 W/m2
21:00 17.1 °C 13.8 °C 1015.5 hPa Calm   1.6 km/h 81 % 0 mm 0 W/m2
21:05 17 °C 13.7 °C 1015.5 hPa Calm   1.6 km/h 81 % 0 mm 0 W/m2
21:10 16.9 °C 13.6 °C 1015.5 hPa Calm   1.6 km/h 81 % 0 mm 0 W/m2
21:15 16.9 °C 13.6 °C 1015.5 hPa Calm   6.4 km/h 81 % 0 mm 0 W/m2
21:20 16.9 °C 13.6 °C 1015.5 hPa NW 1.6 km/h 6.4 km/h 81 % 0 mm 0 W/m2
21:25 16.9 °C 13.6 °C 1015.5 hPa Calm   3.2 km/h 81 % 0 mm 0 W/m2
21:31 16.9 °C 13.6 °C 1015.5 hPa Calm     81 % 0 mm 0 W/m2
21:36 16.8 °C 13.5 °C 1015.5 hPa Calm     81 % 0 mm 0 W/m2
21:41 16.8 °C 13.5 °C 1015.5 hPa Calm     81 % 0 mm 0 W/m2
21:46 16.8 °C 13.7 °C 1015.5 hPa Calm     82 % 0 mm 0 W/m2
21:51 16.8 °C 13.7 °C 1015.5 hPa Calm     82 % 0 mm 0 W/m2
21:56 16.7 °C 13.8 °C 1015.8 hPa Calm     83 % 0 mm 0 W/m2
22:01 16.6 °C 13.7 °C 1015.8 hPa Calm     83 % 0 mm 0 W/m2
22:06 16.6 °C 13.7 °C 1015.8 hPa Calm     83 % 0 mm 0 W/m2
22:11 16.4 °C 13.5 °C 1015.8 hPa Calm     83 % 0 mm 0 W/m2
22:16 16.4 °C 13.7 °C 1015.8 hPa Calm     84 % 0 mm 0 W/m2
22:21 16.3 °C 13.6 °C 1015.8 hPa Calm     84 % 0 mm 0 W/m2
22:26 16.2 °C 13.5 °C 1015.8 hPa Calm     84 % 0 mm 0 W/m2
22:31 16.2 °C 13.7 °C 1015.8 hPa Calm     85 % 0 mm 0 W/m2
22:36 16.1 °C 13.6 °C 1015.8 hPa Calm     85 % 0 mm 0 W/m2
22:41 16.1 °C 13.6 °C 1015.8 hPa Calm     85 % 0 mm 0 W/m2
22:46 16 °C 13.5 °C 1015.8 hPa Calm     85 % 0 mm 0 W/m2
22:51 15.9 °C 13.4 °C 1015.8 hPa Calm     85 % 0 mm 0 W/m2
22:56 15.9 °C 13.4 °C 1015.8 hPa Calm     85 % 0 mm 0 W/m2
23:01 15.8 °C 13.4 °C 1015.8 hPa Calm     86 % 0 mm 0 W/m2
23:06 15.8 °C 13.4 °C 1015.8 hPa Calm     86 % 0 mm 0 W/m2
23:11 15.8 °C 13.4 °C 1015.8 hPa Calm     86 % 0 mm 0 W/m2
23:16 15.7 °C 13.4 °C 1015.8 hPa Calm     86 % 0 mm 0 W/m2
23:21 15.7 °C 13.4 °C 1015.8 hPa Calm     86 % 0 mm 0 W/m2
23:26 15.6 °C 13.3 °C 1015.8 hPa Calm     86 % 0 mm 0 W/m2
23:31 15.6 °C 13.3 °C 1015.8 hPa NW 1.6 km/h 8 km/h 86 % 0 mm 0 W/m2
23:36 15.6 °C 13.3 °C 1015.8 hPa NW 1.6 km/h 8 km/h 86 % 0 mm 0 W/m2
23:41 15.6 °C 13.3 °C 1015.8 hPa WNW 3.2 km/h 14.5 km/h 86 % 0 mm 0 W/m2
23:46 15.6 °C 13.1 °C 1015.8 hPa WNW 8 km/h 14.5 km/h 85 % 0 mm 0 W/m2
23:49 15.6 °C 13.1 °C 1015.8 hPa WNW 8 km/h 14.5 km/h 85 % 0 mm 0 W/m2
23:54 15.7 °C 13.2 °C 1015.8 hPa NW 6.4 km/h 11.3 km/h 85 % 0 mm 0 W/m2
23:59 15.7 °C 13.2 °C 1015.8 hPa NW 4.8 km/h 9.7 km/h 85 % 0 mm 0 W/m2
Delerius-Weather
Compliments of Weather Underground - 2.25 mb

Data updates at regular intervals.